Time;durP1;ratioP1;P1;durP2;ratioP2;P2;SDS_P1;SDS_P2;PMS_P1;PMS_P2;Temp;Humidity;BMP_temperature;BMP_pressure;BME280_temperature;BME280_humidity;BME280_pressure;Samples;Min_cycle;Max_cycle;Signal;HPM_P1;HPM_P2
2022/01/09 00:02:02;;;;;;;2.53;1.00;;;5.50;99.90;;;;;;4999662;28;20521;-91
2022/01/09 00:04:28;;;;;;;6.15;2.00;;;5.50;99.90;;;;;;4999059;28;20033;-91
2022/01/09 00:06:54;;;;;;;3.42;1.75;;;5.50;99.90;;;;;;4995593;28;20398;-90
2022/01/09 00:09:19;;;;;;;4.68;1.58;;;5.50;99.90;;;;;;5009565;28;20044;-91
2022/01/09 00:11:45;;;;;;;4.60;1.58;;;5.50;99.90;;;;;;4987962;28;20061;-91
2022/01/09 00:14:10;;;;;;;2.45;1.52;;;5.50;99.90;;;;;;4996798;28;20037;-91
2022/01/09 00:16:36;;;;;;;3.67;1.35;;;5.60;99.90;;;;;;5024783;28;20040;-91
2022/01/09 00:19:01;;;;;;;3.90;2.10;;;5.60;99.90;;;;;;4998992;28;20034;-91
2022/01/09 00:21:27;;;;;;;3.85;2.17;;;5.60;99.90;;;;;;4998590;28;20042;-90
2022/01/09 00:23:53;;;;;;;4.88;2.72;;;5.60;99.90;;;;;;4995946;28;20087;-91
2022/01/09 00:26:18;;;;;;;3.20;2.13;;;5.50;99.90;;;;;;4999135;28;20033;-90
2022/01/09 00:28:44;;;;;;;3.67;2.30;;;5.50;99.90;;;;;;4998410;28;20359;-90
2022/01/09 00:31:09;;;;;;;3.80;2.67;;;5.50;99.90;;;;;;4995646;28;20030;-90
2022/01/09 00:33:35;;;;;;;4.50;2.70;;;5.50;99.90;;;;;;4998256;28;20613;-90
2022/01/09 00:36:01;;;;;;;4.97;3.30;;;5.60;99.90;;;;;;4998151;28;20053;-90
2022/01/09 00:38:26;;;;;;;3.60;2.55;;;5.60;99.90;;;;;;4998022;28;20089;-90
2022/01/09 00:40:52;;;;;;;7.03;3.47;;;5.60;99.90;;;;;;5013757;28;20038;-90
2022/01/09 00:43:18;;;;;;;4.40;3.03;;;5.50;99.90;;;;;;4995567;28;20501;-90
2022/01/09 00:45:43;;;;;;;5.95;3.38;;;5.50;99.90;;;;;;5009996;28;20025;-90
2022/01/09 00:48:10;;;;;;;6.45;3.33;;;5.60;99.90;;;;;;4992816;28;20034;-90
2022/01/09 00:50:38;;;;;;;6.90;3.28;;;5.60;99.90;;;;;;4992817;28;20394;-91
2022/01/09 00:53:04;;;;;;;5.68;3.92;;;5.60;99.90;;;;;;5003140;28;20113;-90
2022/01/09 00:55:30;;;;;;;6.32;4.10;;;5.60;99.90;;;;;;5012924;28;20052;-91
2022/01/09 00:57:55;;;;;;;6.25;4.43;;;5.60;99.90;;;;;;4998525;28;20033;-91
2022/01/09 01:00:21;;;;;;;7.32;4.85;;;5.60;99.90;;;;;;4998036;28;20109;-91
2022/01/09 01:02:47;;;;;;;7.82;5.07;;;5.60;99.90;;;;;;4996979;28;20025;-92
2022/01/09 01:05:12;;;;;;;7.65;4.13;;;5.60;99.90;;;;;;4989259;28;20034;-92
2022/01/09 01:07:38;;;;;;;8.93;4.63;;;5.70;99.90;;;;;;4996903;28;20482;-92
2022/01/09 01:10:04;;;;;;;7.57;3.50;;;5.70;99.90;;;;;;4996142;28;20102;-91
2022/01/09 01:12:32;;;;;;;11.43;3.72;;;5.80;99.90;;;;;;4995750;28;20030;-91
2022/01/09 01:14:58;;;;;;;13.95;4.50;;;5.80;99.90;;;;;;4996750;28;20032;-92
2022/01/09 01:17:24;;;;;;;9.77;2.70;;;5.90;99.90;;;;;;4995205;28;20085;-90
2022/01/09 01:19:50;;;;;;;10.52;2.03;;;5.90;99.90;;;;;;4993447;28;20560;-92
2022/01/09 01:22:16;;;;;;;10.15;1.90;;;5.90;99.90;;;;;;4994865;28;20062;-91
2022/01/09 01:24:42;;;;;;;13.43;2.30;;;5.80;99.90;;;;;;4989484;28;20038;-90
2022/01/09 01:27:09;;;;;;;12.15;2.03;;;5.80;99.90;;;;;;4994486;28;20015;-91
2022/01/09 01:29:36;;;;;;;16.50;2.65;;;5.80;99.90;;;;;;4994696;28;20034;-91
2022/01/09 01:32:02;;;;;;;26.10;3.28;;;5.80;99.90;;;;;;4986518;28;20113;-92
2022/01/09 01:34:28;;;;;;;28.73;4.68;;;5.90;99.90;;;;;;4990001;28;20060;-91
2022/01/09 01:36:54;;;;;;;23.90;3.00;;;5.90;99.90;;;;;;4993590;28;20087;-93
2022/01/09 01:39:19;;;;;;;40.97;4.13;;;5.90;99.90;;;;;;4996970;28;20079;-91
2022/01/09 01:41:45;;;;;;;33.13;2.85;;;6.00;99.90;;;;;;4993245;28;20072;-91
2022/01/09 01:44:12;;;;;;;40.70;4.72;;;6.00;99.90;;;;;;4996074;28;20053;-91
2022/01/09 01:46:38;;;;;;;34.72;3.88;;;6.10;99.90;;;;;;4986826;28;20042;-92
2022/01/09 01:49:05;;;;;;;47.70;5.72;;;6.00;99.90;;;;;;4988264;28;20101;-91
2022/01/09 01:51:33;;;;;;;28.70;3.63;;;6.00;99.90;;;;;;4993338;28;20098;-90
2022/01/09 01:53:59;;;;;;;39.22;2.97;;;6.10;99.90;;;;;;4994245;28;20070;-91
2022/01/09 01:56:25;;;;;;;24.35;2.88;;;6.00;99.90;;;;;;4987101;28;20038;-91
2022/01/09 01:58:51;;;;;;;40.75;3.85;;;6.10;99.90;;;;;;4994360;28;20022;-90
2022/01/09 02:01:17;;;;;;;26.02;2.70;;;6.10;99.90;;;;;;4994194;28;20034;-90
2022/01/09 02:03:43;;;;;;;20.60;2.13;;;6.00;99.90;;;;;;4991617;28;20049;-90
2022/01/09 02:06:10;;;;;;;35.45;4.22;;;6.00;99.90;;;;;;4992609;28;20033;-91
2022/01/09 02:08:36;;;;;;;30.48;3.15;;;6.10;99.90;;;;;;4990245;28;20022;-90
2022/01/09 02:11:02;;;;;;;27.10;2.45;;;6.10;99.90;;;;;;4992115;28;20088;-90
2022/01/09 02:13:28;;;;;;;30.58;4.03;;;6.10;99.90;;;;;;4993165;28;20483;-90
2022/01/09 02:15:57;;;;;;;39.55;3.50;;;6.10;99.90;;;;;;4992621;28;20027;-90
2022/01/09 02:18:23;;;;;;;38.58;3.17;;;6.20;99.90;;;;;;4988799;28;20050;-90
2022/01/09 02:20:50;;;;;;;25.92;2.40;;;6.20;99.90;;;;;;4980445;28;20043;-90
2022/01/09 02:23:17;;;;;;;31.55;3.13;;;6.20;99.90;;;;;;4987693;28;20027;-90
2022/01/09 02:25:44;;;;;;;28.17;3.20;;;6.20;99.90;;;;;;4992269;28;20034;-90
2022/01/09 02:28:12;;;;;;;26.27;3.08;;;6.20;99.90;;;;;;4990931;28;20475;-89
2022/01/09 02:30:39;;;;;;;34.55;3.30;;;6.20;99.90;;;;;;4988930;28;20042;-89
2022/01/09 02:33:10;;;;;;;23.42;3.35;;;6.20;99.90;;;;;;4992137;28;20112;-90
2022/01/09 02:35:37;;;;;;;33.10;3.35;;;6.20;99.90;;;;;;4982834;28;20109;-90
2022/01/09 02:38:05;;;;;;;33.13;2.63;;;6.10;99.90;;;;;;4990581;28;20058;-89
2022/01/09 02:40:31;;;;;;;21.70;3.05;;;6.10;99.90;;;;;;4987704;28;20577;-90
2022/01/09 02:42:57;;;;;;;35.70;3.47;;;6.10;99.90;;;;;;4990350;28;20066;-90
2022/01/09 02:45:24;;;;;;;24.95;2.22;;;6.00;99.90;;;;;;4987894;28;20035;-89
2022/01/09 02:47:51;;;;;;;29.23;2.63;;;6.00;99.90;;;;;;4992819;28;20035;-89
2022/01/09 02:52:53;;;;;;;40.88;4.13;;;6.00;99.90;;;;;;4986667;28;20023;-89
2022/01/09 02:55:20;;;;;;;33.30;3.60;;;6.00;99.90;;;;;;4991309;28;20047;-89
2022/01/09 02:57:48;;;;;;;30.95;3.33;;;6.00;99.90;;;;;;4991185;28;20030;-90
2022/01/09 03:00:16;;;;;;;27.45;2.50;;;6.10;99.90;;;;;;4992818;28;20144;-89
2022/01/09 03:02:42;;;;;;;44.88;5.20;;;6.10;99.90;;;;;;4992097;28;20120;-88
2022/01/09 03:05:09;;;;;;;38.05;5.47;;;6.20;99.90;;;;;;4986709;28;20062;-89
2022/01/09 03:07:35;;;;;;;26.77;3.90;;;6.20;99.90;;;;;;4987341;28;20026;-89
2022/01/09 03:10:00;;;;;;;33.13;3.35;;;6.30;99.90;;;;;;4998413;28;20029;-88
2022/01/09 03:12:26;;;;;;;35.85;3.40;;;6.30;99.90;;;;;;4985789;28;20038;-89
2022/01/09 03:14:51;;;;;;;29.60;3.00;;;6.30;99.90;;;;;;4984966;28;20471;-90
2022/01/09 03:17:17;;;;;;;29.38;2.92;;;6.30;99.90;;;;;;4986013;28;20050;-89
2022/01/09 03:19:42;;;;;;;23.67;2.67;;;6.30;99.90;;;;;;4988383;28;20085;-89
2022/01/09 03:22:08;;;;;;;27.23;3.55;;;6.30;99.90;;;;;;4991273;28;20053;-89
2022/01/09 03:24:34;;;;;;;32.13;3.25;;;6.30;99.90;;;;;;4992264;28;20113;-89
2022/01/09 03:27:01;;;;;;;21.13;2.35;;;6.30;99.90;;;;;;4990041;28;20074;-89
2022/01/09 03:29:27;;;;;;;21.27;1.92;;;6.30;99.90;;;;;;4991823;28;20068;-89
2022/01/09 03:31:52;;;;;;;25.90;2.65;;;6.30;99.90;;;;;;4988894;28;20435;-88
2022/01/09 03:34:18;;;;;;;24.02;3.55;;;6.30;99.90;;;;;;4994964;28;20034;-88
2022/01/09 03:36:43;;;;;;;27.67;2.83;;;6.30;99.90;;;;;;4989225;28;20768;-88
2022/01/09 03:39:09;;;;;;;24.50;2.88;;;6.30;99.90;;;;;;4988505;28;20057;-89
2022/01/09 03:41:35;;;;;;;28.50;3.10;;;6.30;99.90;;;;;;4988681;28;20039;-88
2022/01/09 03:44:00;;;;;;;25.35;2.88;;;6.30;99.90;;;;;;4992057;28;20153;-88
2022/01/09 03:46:26;;;;;;;25.95;3.13;;;6.30;99.90;;;;;;4991283;28;20018;-88
2022/01/09 03:48:51;;;;;;;20.42;2.08;;;6.30;99.90;;;;;;4991521;28;20033;-88
2022/01/09 03:51:17;;;;;;;28.88;2.47;;;6.30;99.90;;;;;;4991418;28;21478;-88
2022/01/09 03:53:42;;;;;;;25.58;3.30;;;6.20;99.90;;;;;;4988178;28;20033;-88
2022/01/09 03:56:08;;;;;;;25.45;3.25;;;6.20;99.90;;;;;;4993749;28;20390;-88
2022/01/09 03:58:36;;;;;;;16.45;1.85;;;6.20;99.90;;;;;;4991636;28;20030;-88
2022/01/09 04:01:03;;;;;;;25.75;2.65;;;6.20;99.90;;;;;;4992138;28;20486;-87
2022/01/09 04:03:28;;;;;;;17.35;1.65;;;6.20;99.90;;;;;;4986065;28;20026;-88
2022/01/09 04:05:54;;;;;;;21.48;2.22;;;6.20;99.90;;;;;;4991607;28;20045;-87
2022/01/09 04:08:19;;;;;;;34.55;2.70;;;6.10;99.90;;;;;;4983547;28;20356;-87
2022/01/09 04:10:47;;;;;;;20.58;1.67;;;6.10;99.90;;;;;;4991121;28;20031;-88
2022/01/09 04:13:13;;;;;;;22.75;1.83;;;6.10;99.90;;;;;;4982911;28;20106;-87
2022/01/09 04:15:45;;;;;;;22.38;1.58;;;6.10;99.90;;;;;;4991959;28;20018;-88
2022/01/09 04:18:13;;;;;;;21.70;2.50;;;6.10;99.90;;;;;;4995268;28;20119;-88
2022/01/09 04:20:38;;;;;;;22.98;1.45;;;6.10;99.90;;;;;;4993715;28;20117;-88
2022/01/09 04:23:03;;;;;;;15.98;1.50;;;6.00;99.90;;;;;;4993182;28;20117;-88
2022/01/09 04:25:29;;;;;;;19.83;1.83;;;6.00;99.90;;;;;;4999550;28;20101;-88
2022/01/09 04:27:55;;;;;;;22.20;3.03;;;6.00;99.90;;;;;;4988790;28;20453;-87
2022/01/09 04:30:21;;;;;;;15.90;2.05;;;5.90;99.90;;;;;;4992688;28;20027;-86
2022/01/09 04:32:47;;;;;;;17.50;2.42;;;5.90;99.90;;;;;;4991510;28;20026;-87
2022/01/09 04:35:14;;;;;;;21.55;1.80;;;5.90;99.90;;;;;;4987154;28;20030;-87
2022/01/09 04:37:39;;;;;;;13.98;1.52;;;5.90;99.90;;;;;;4989177;28;20028;-87
2022/01/09 04:40:08;;;;;;;22.52;2.17;;;5.90;99.90;;;;;;4993687;28;20022;-87
2022/01/09 04:42:41;;;;;;;11.07;1.20;;;5.90;99.90;;;;;;4995001;28;20030;-87
2022/01/09 04:45:08;;;;;;;;;;;5.80;99.90;;;;;;4994556;28;20450;-88
2022/01/09 04:47:34;;;;;;;14.07;1.10;;;5.80;99.90;;;;;;4990873;28;19921;-87
2022/01/09 04:50:00;;;;;;;24.02;2.13;;;5.80;99.90;;;;;;4989449;28;20026;-87
2022/01/09 04:52:32;;;;;;;17.55;1.80;;;5.80;99.90;;;;;;4985102;28;20065;-87
2022/01/09 04:54:57;;;;;;;18.00;1.85;;;5.70;99.90;;;;;;4991522;28;20034;-87
2022/01/09 04:57:23;;;;;;;15.80;1.50;;;5.70;99.90;;;;;;4988324;28;20180;-87
2022/01/09 04:59:48;;;;;;;18.08;1.55;;;5.70;99.90;;;;;;4987186;28;20028;-87
2022/01/09 05:02:14;;;;;;;22.05;1.67;;;5.60;99.90;;;;;;4990689;28;20047;-87
2022/01/09 05:04:39;;;;;;;14.27;1.60;;;5.60;99.90;;;;;;4988614;28;20027;-87
2022/01/09 05:07:05;;;;;;;14.40;1.08;;;5.60;99.90;;;;;;4993702;28;20030;-87
2022/01/09 05:09:30;;;;;;;22.05;1.48;;;5.60;99.90;;;;;;4994633;28;20026;-87
2022/01/09 05:11:57;;;;;;;14.20;2.05;;;5.50;99.90;;;;;;4993003;28;20398;-87
2022/01/09 05:14:23;;;;;;;21.45;1.30;;;5.50;99.90;;;;;;4991086;28;20109;-87
2022/01/09 05:16:49;;;;;;;20.27;1.80;;;5.50;99.90;;;;;;4994883;28;20065;-87
2022/01/09 05:19:21;;;;;;;17.85;1.90;;;5.50;99.90;;;;;;4992472;28;20068;-87
2022/01/09 05:21:48;;;;;;;13.25;1.10;;;5.50;99.90;;;;;;4981024;23;20050;-86
2022/01/09 05:24:15;;;;;;;24.70;2.28;;;5.50;99.90;;;;;;4973104;28;20483;-86
2022/01/09 05:26:40;;;;;;;10.85;1.25;;;5.50;99.90;;;;;;4983867;28;20035;-86
2022/01/09 05:29:06;;;;;;;14.38;1.13;;;5.50;99.90;;;;;;4972706;28;20126;-86
2022/01/09 05:31:31;;;;;;;17.30;1.10;;;5.50;99.90;;;;;;4972870;28;20386;-87
2022/01/09 05:33:57;;;;;;;25.67;2.35;;;5.40;99.90;;;;;;4977086;28;20031;-86
2022/01/09 05:36:22;;;;;;;20.38;1.63;;;5.40;99.90;;;;;;4987906;28;20027;-86
2022/01/09 05:38:48;;;;;;;14.77;0.90;;;5.50;99.90;;;;;;4973640;28;20023;-86
2022/01/09 05:41:13;;;;;;;16.77;1.38;;;5.50;99.90;;;;;;4969142;28;20039;-87
2022/01/09 05:43:40;;;;;;;16.08;1.75;;;5.40;99.90;;;;;;4971899;28;20038;-86
2022/01/09 05:46:06;;;;;;;12.25;0.90;;;5.40;99.90;;;;;;4970866;28;20027;-87
2022/01/09 05:48:32;;;;;;;13.75;1.58;;;5.40;99.90;;;;;;4970401;28;20077;-86
2022/01/09 05:50:57;;;;;;;11.48;1.20;;;5.40;99.90;;;;;;4970777;28;20035;-87
2022/01/09 05:53:23;;;;;;;11.15;0.90;;;5.40;99.90;;;;;;4967897;28;20039;-87
2022/01/09 05:55:48;;;;;;;9.32;1.10;;;5.40;99.90;;;;;;4981012;28;20027;-87
2022/01/09 05:58:14;;;;;;;7.90;0.80;;;5.40;99.90;;;;;;4966726;28;20126;-87
2022/01/09 06:00:39;;;;;;;16.30;1.25;;;5.30;99.90;;;;;;4988928;28;20041;-87
2022/01/09 06:03:05;;;;;;;14.23;1.40;;;5.30;99.90;;;;;;4966692;28;20031;-87
2022/01/09 06:05:31;;;;;;;11.02;0.77;;;5.30;99.90;;;;;;4967719;28;20026;-88
2022/01/09 06:07:56;;;;;;;14.10;1.13;;;5.30;99.90;;;;;;4986773;28;20126;-88
2022/01/09 06:10:22;;;;;;;19.42;1.63;;;5.40;99.90;;;;;;4988949;28;20031;-87
2022/01/09 06:12:47;;;;;;;8.98;0.73;;;5.40;99.90;;;;;;4981749;28;20034;-87
2022/01/09 06:15:13;;;;;;;19.77;2.50;;;5.30;99.90;;;;;;4973025;28;20038;-88
2022/01/09 06:17:41;;;;;;;15.23;1.60;;;5.40;99.90;;;;;;4973778;28;20038;-88
2022/01/09 06:20:08;;;;;;;13.18;1.05;;;5.30;99.90;;;;;;4974641;28;20095;-87
2022/01/09 06:22:33;;;;;;;13.73;1.10;;;5.30;99.90;;;;;;4986364;28;20047;-89
2022/01/09 06:24:59;;;;;;;11.73;0.93;;;5.20;99.90;;;;;;4987998;28;20014;-87
2022/01/09 06:27:26;;;;;;;10.00;2.22;;;5.20;99.90;;;;;;4970971;28;20080;-88
2022/01/09 06:29:51;;;;;;;13.60;0.93;;;5.20;99.90;;;;;;4970972;28;20423;-87
2022/01/09 06:32:17;;;;;;;16.05;1.35;;;5.20;99.90;;;;;;4988755;28;20093;-86
2022/01/09 06:34:43;;;;;;;13.73;0.90;;;5.10;99.90;;;;;;4972527;28;20062;-86
2022/01/09 06:37:10;;;;;;;8.43;0.80;;;5.10;99.90;;;;;;4973318;28;20046;-86
2022/01/09 06:39:36;;;;;;;15.57;1.08;;;5.10;99.90;;;;;;4973507;28;20109;-86
2022/01/09 06:42:02;;;;;;;9.55;0.90;;;5.10;99.90;;;;;;4973703;28;20138;-86
2022/01/09 06:44:28;;;;;;;10.23;0.80;;;5.00;99.90;;;;;;4972951;28;20447;-86
2022/01/09 06:46:53;;;;;;;12.43;1.27;;;5.00;99.90;;;;;;4989675;28;20034;-86
2022/01/09 06:49:19;;;;;;;14.70;1.75;;;5.00;99.90;;;;;;4974177;28;20126;-86
2022/01/09 06:51:44;;;;;;;10.25;0.98;;;5.00;99.90;;;;;;4973382;28;20027;-86
2022/01/09 06:54:10;;;;;;;9.55;0.90;;;5.00;99.90;;;;;;4967913;28;20114;-87
2022/01/09 06:56:35;;;;;;;13.80;1.08;;;5.00;99.90;;;;;;4971561;28;20030;-86
2022/01/09 06:59:01;;;;;;;16.73;1.50;;;4.90;99.90;;;;;;4971116;28;20024;-87
2022/01/09 07:01:26;;;;;;;19.10;2.15;;;4.90;99.90;;;;;;4970437;28;20037;-87
2022/01/09 07:03:52;;;;;;;10.50;0.75;;;4.80;99.90;;;;;;4963433;28;20062;-86
2022/01/09 07:06:18;;;;;;;14.30;1.90;;;4.80;99.90;;;;;;4981167;28;20089;-86
2022/01/09 07:08:43;;;;;;;9.27;1.23;;;4.70;99.90;;;;;;4985151;28;20031;-86
2022/01/09 07:11:09;;;;;;;12.02;1.17;;;4.70;99.90;;;;;;4963434;28;20572;-86
2022/01/09 07:13:34;;;;;;;14.88;1.25;;;4.60;99.90;;;;;;4968087;28;20034;-86
2022/01/09 07:16:00;;;;;;;10.95;0.90;;;4.70;99.90;;;;;;4968035;28;20035;-86
2022/01/09 07:18:25;;;;;;;9.60;1.45;;;4.70;99.90;;;;;;4987649;28;20026;-86
2022/01/09 07:20:51;;;;;;;7.65;0.70;;;4.70;99.90;;;;;;4967189;28;20093;-86
2022/01/09 07:23:17;;;;;;;9.70;0.68;;;4.70;99.90;;;;;;4987998;28;20038;-86
2022/01/09 07:25:43;;;;;;;8.20;1.10;;;4.80;99.90;;;;;;4991384;28;20034;-85
2022/01/09 07:28:09;;;;;;;6.40;1.02;;;4.90;99.90;;;;;;4971984;28;20033;-86
2022/01/09 07:30:34;;;;;;;12.40;0.85;;;5.00;99.90;;;;;;4974038;28;20061;-87
2022/01/09 07:33:00;;;;;;;8.77;0.90;;;5.00;99.90;;;;;;4972457;28;20037;-87
2022/01/09 07:35:26;;;;;;;11.02;1.02;;;5.10;99.90;;;;;;4974802;28;20062;-86
2022/01/09 07:37:52;;;;;;;16.67;1.52;;;5.10;99.90;;;;;;4964952;28;20106;-86
2022/01/09 07:40:20;;;;;;;12.10;1.00;;;5.10;99.90;;;;;;4983767;28;20075;-86
2022/01/09 07:42:46;;;;;;;11.07;0.95;;;5.00;99.90;;;;;;4976017;28;20058;-86
2022/01/09 07:45:13;;;;;;;17.20;1.70;;;5.00;99.90;;;;;;4978879;28;20034;-87
2022/01/09 07:47:39;;;;;;;17.63;1.40;;;5.00;99.90;;;;;;4976370;28;20030;-86
2022/01/09 07:50:06;;;;;;;10.90;1.10;;;5.10;99.90;;;;;;4964030;28;20108;-87
2022/01/09 07:52:35;;;;;;;17.30;1.30;;;5.10;99.90;;;;;;4973888;28;20029;-86
2022/01/09 07:55:03;;;;;;;9.77;0.80;;;5.10;99.90;;;;;;4977601;28;20041;-88
2022/01/09 07:57:28;;;;;;;14.15;1.70;;;5.10;99.90;;;;;;4978035;28;20026;-87
2022/01/09 07:59:56;;;;;;;6.68;0.90;;;5.10;99.90;;;;;;4987078;28;20506;-88
2022/01/09 08:02:22;;;;;;;10.05;1.00;;;5.10;99.90;;;;;;4969283;28;20039;-87
2022/01/09 08:04:47;;;;;;;9.48;1.30;;;5.10;99.90;;;;;;4991789;28;22185;-87
2022/01/09 08:07:13;;;;;;;13.82;1.48;;;5.10;99.90;;;;;;4977062;28;20026;-87
2022/01/09 08:09:39;;;;;;;6.90;0.73;;;5.10;99.90;;;;;;4978669;28;20073;-87
2022/01/09 08:12:06;;;;;;;5.00;0.60;;;5.10;99.90;;;;;;4967108;28;20022;-87
2022/01/09 08:14:31;;;;;;;13.30;1.17;;;5.10;99.90;;;;;;4971755;28;20096;-87
2022/01/09 08:16:59;;;;;;;10.98;0.90;;;5.00;99.90;;;;;;4970909;28;20026;-88
2022/01/09 08:19:24;;;;;;;9.75;1.00;;;5.00;99.90;;;;;;4977217;28;20117;-87
2022/01/09 08:21:50;;;;;;;8.63;1.40;;;4.90;99.90;;;;;;4972762;28;20134;-88
2022/01/09 08:24:15;;;;;;;6.43;0.55;;;4.90;99.90;;;;;;4976379;28;20471;-87
2022/01/09 08:26:41;;;;;;;11.25;0.80;;;4.90;99.90;;;;;;4975774;28;20077;-87
2022/01/09 08:29:07;;;;;;;10.27;0.70;;;4.90;99.90;;;;;;4972590;28;20026;-87
2022/01/09 08:31:32;;;;;;;9.45;1.05;;;5.00;99.90;;;;;;4971831;28;20041;-87
2022/01/09 08:33:58;;;;;;;10.35;0.60;;;5.00;99.90;;;;;;4969942;28;20065;-87
2022/01/09 08:36:24;;;;;;;11.93;0.80;;;5.00;99.90;;;;;;4976547;28;20030;-86
2022/01/09 08:38:49;;;;;;;10.02;0.95;;;5.00;99.90;;;;;;4975618;28;20030;-87
2022/01/09 08:41:15;;;;;;;9.00;0.80;;;5.00;99.90;;;;;;4968998;28;20041;-87
2022/01/09 08:43:40;;;;;;;5.72;0.95;;;5.00;99.90;;;;;;4974749;28;20054;-88
2022/01/09 08:46:07;;;;;;;14.95;1.20;;;5.00;99.90;;;;;;4963418;28;20062;-87
2022/01/09 08:48:32;;;;;;;8.15;0.98;;;5.10;99.90;;;;;;4971086;28;20027;-87
2022/01/09 08:50:58;;;;;;;6.35;1.08;;;5.10;99.90;;;;;;4974719;28;20037;-87
2022/01/09 08:53:24;;;;;;;8.93;0.60;;;5.20;99.90;;;;;;4968412;28;20387;-87
2022/01/09 08:55:49;;;;;;;6.32;0.70;;;5.20;99.90;;;;;;4966981;28;20074;-86
2022/01/09 08:58:15;;;;;;;8.90;0.70;;;5.20;99.90;;;;;;4974392;28;20022;-87
2022/01/09 09:00:40;;;;;;;9.23;1.02;;;5.30;99.90;;;;;;4973126;28;20038;-87
2022/01/09 09:03:07;;;;;;;10.63;1.23;;;5.30;99.90;;;;;;4988576;28;20049;-87
2022/01/09 09:05:33;;;;;;;12.77;1.33;;;5.30;99.90;;;;;;4976384;28;20038;-89
2022/01/09 09:07:58;;;;;;;13.20;1.60;;;5.30;99.90;;;;;;4978704;28;20558;-89
2022/01/09 09:10:25;;;;;;;11.95;0.93;;;5.30;99.90;;;;;;4966484;28;20105;-88
2022/01/09 09:12:50;;;;;;;8.82;0.95;;;5.20;99.90;;;;;;4983695;28;20094;-88
2022/01/09 09:15:19;;;;;;;7.72;1.00;;;5.20;99.90;;;;;;4974840;28;20503;-87
2022/01/09 09:17:45;;;;;;;15.00;1.38;;;5.20;99.90;;;;;;4965770;28;20029;-87
2022/01/09 09:20:12;;;;;;;5.78;0.70;;;5.10;99.90;;;;;;4974305;28;20026;-87
2022/01/09 09:22:38;;;;;;;10.00;1.40;;;5.00;99.90;;;;;;4985338;28;20106;-85
2022/01/09 09:25:04;;;;;;;15.30;1.40;;;5.00;99.90;;;;;;4971313;28;20030;-87
2022/01/09 09:27:30;;;;;;;14.55;1.73;;;5.00;99.90;;;;;;4966139;28;20030;-87
2022/01/09 09:30:01;;;;;;;10.43;1.02;;;5.10;99.90;;;;;;4987115;28;20505;-87
2022/01/09 09:32:27;;;;;;;7.85;1.25;;;5.10;99.90;;;;;;4963128;28;20431;-87
2022/01/09 09:34:52;;;;;;;14.77;1.33;;;5.20;99.90;;;;;;4977830;28;20081;-87
2022/01/09 09:37:18;;;;;;;12.10;1.55;;;5.30;99.90;;;;;;4974403;28;20109;-86
2022/01/09 09:39:43;;;;;;;9.73;1.50;;;5.40;99.90;;;;;;4975218;28;20073;-87
2022/01/09 09:42:09;;;;;;;7.28;1.05;;;5.40;99.90;;;;;;4971192;28;20035;-87
2022/01/09 09:44:36;;;;;;;9.52;1.35;;;5.40;99.90;;;;;;4984103;28;20506;-86
2022/01/09 09:47:03;;;;;;;11.93;1.13;;;5.40;99.90;;;;;;4984912;28;20030;-87
2022/01/09 09:49:29;;;;;;;11.27;1.15;;;5.50;99.90;;;;;;4964404;28;20404;-87
2022/01/09 09:51:54;;;;;;;10.15;1.00;;;5.50;99.90;;;;;;4966625;28;20050;-86
2022/01/09 09:54:20;;;;;;;16.42;1.42;;;5.40;99.90;;;;;;4984376;28;20034;-87
2022/01/09 09:56:45;;;;;;;8.52;1.52;;;5.50;99.90;;;;;;4971592;28;20117;-87
2022/01/09 09:59:11;;;;;;;14.70;0.95;;;5.40;99.90;;;;;;4983560;28;20022;-87
2022/01/09 10:01:37;;;;;;;9.80;1.95;;;5.40;99.90;;;;;;4968995;28;20544;-88
2022/01/09 10:04:08;;;;;;;7.82;1.05;;;5.40;99.90;;;;;;4969326;28;20026;-87
2022/01/09 10:06:35;;;;;;;6.72;1.52;;;5.40;99.90;;;;;;4968778;28;20657;-86
2022/01/09 10:09:06;;;;;;;13.32;1.63;;;5.40;99.90;;;;;;4970017;28;20168;-86
2022/01/09 10:11:51;;;;;;;10.90;1.30;;;5.50;99.90;;;;;;4968795;28;20030;-88
2022/01/09 10:14:23;;;;;;;8.13;1.00;;;5.50;99.90;;;;;;4972732;28;20053;-87
2022/01/09 10:17:07;;;;;;;14.33;1.30;;;5.50;99.90;;;;;;4971329;28;20521;-86
2022/01/09 10:19:49;;;;;;;11.75;1.13;;;5.50;99.90;;;;;;4984466;28;20325;-85
2022/01/09 10:22:37;;;;;;;10.30;1.00;;;5.50;99.90;;;;;;4965559;28;20046;-87
2022/01/09 10:25:27;;;;;;;9.75;0.77;;;5.50;99.90;;;;;;4965299;28;20058;-87
2022/01/09 10:28:09;;;;;;;12.52;1.00;;;5.40;99.90;;;;;;4983993;28;20117;-87
2022/01/09 10:30:41;;;;;;;10.88;1.15;;;5.40;99.90;;;;;;4960355;28;20026;-87
2022/01/09 10:33:12;;;;;;;13.45;1.10;;;5.50;99.90;;;;;;4966461;28;20022;-87
2022/01/09 10:35:40;;;;;;;16.52;1.85;;;5.50;99.90;;;;;;4988531;28;20034;-86
2022/01/09 10:38:13;;;;;;;12.63;0.90;;;5.60;99.90;;;;;;4974142;28;20023;-86
2022/01/09 10:40:41;;;;;;;11.35;1.70;;;5.60;99.90;;;;;;4962320;28;20042;-86
2022/01/09 10:43:14;;;;;;;11.18;1.52;;;5.70;99.90;;;;;;4972162;28;20038;-86
2022/01/09 10:45:42;;;;;;;11.40;0.88;;;5.80;99.90;;;;;;4973263;28;20018;-87
2022/01/09 10:48:16;;;;;;;11.40;0.50;;;5.80;99.90;;;;;;4964698;28;20042;-87
2022/01/09 10:50:43;;;;;;;7.82;0.85;;;5.90;99.90;;;;;;4972870;28;20478;-86
2022/01/09 10:53:35;;;;;;;5.75;0.40;;;6.00;99.90;;;;;;4969758;28;20042;-86
2022/01/09 10:56:12;;;;;;;;;;;6.10;99.90;;;;;;4970832;28;20057;-86
2022/01/09 10:58:48;;;;;;;7.57;0.55;;;6.10;99.90;;;;;;4966046;28;20012;-86
2022/01/09 11:01:23;;;;;;;9.85;0.85;;;6.20;99.90;;;;;;4967582;28;20030;-86
2022/01/09 11:04:00;;;;;;;9.63;0.70;;;6.20;99.90;;;;;;4988633;28;20018;-86
2022/01/09 11:06:31;;;;;;;7.68;1.63;;;6.20;99.90;;;;;;4970101;28;20034;-86
2022/01/09 11:08:57;;;;;;;11.45;1.15;;;6.00;99.90;;;;;;4970067;28;20034;-87
2022/01/09 11:11:30;;;;;;;11.02;0.88;;;5.90;99.90;;;;;;4972669;28;20464;-87
2022/01/09 11:13:57;;;;;;;8.68;0.80;;;5.70;99.90;;;;;;4973604;28;20049;-86
2022/01/09 11:19:08;;;;;;;12.85;0.93;;;5.50;99.90;;;;;;4989351;28;20050;-87
2022/01/09 11:21:35;;;;;;;6.70;0.63;;;5.40;99.90;;;;;;4965392;28;20049;-87
2022/01/09 11:24:38;;;;;;;10.23;0.80;;;5.40;99.90;;;;;;4978857;28;20037;-87
2022/01/09 11:27:22;;;;;;;10.35;0.98;;;5.60;99.90;;;;;;4987073;28;20027;-87
2022/01/09 11:30:09;;;;;;;9.63;0.80;;;5.80;99.90;;;;;;4998181;28;20091;-87
2022/01/09 11:32:57;;;;;;;6.10;0.90;;;5.80;99.90;;;;;;4967948;28;20034;-87
2022/01/09 11:35:40;;;;;;;17.60;0.95;;;5.90;99.90;;;;;;4981754;28;20084;-86
2022/01/09 11:38:17;;;;;;;12.27;1.00;;;6.10;99.90;;;;;;4997748;28;20038;-87
2022/01/09 11:40:42;;;;;;;9.10;0.90;;;6.30;99.90;;;;;;4989131;28;20041;-88
2022/01/09 11:43:17;;;;;;;18.00;1.58;;;6.40;99.90;;;;;;4974227;28;20030;-88
2022/01/09 11:46:06;;;;;;;9.75;0.93;;;6.40;99.90;;;;;;4978923;28;20033;-87
2022/01/09 11:48:42;;;;;;;13.63;1.35;;;6.40;99.90;;;;;;4981764;28;20030;-87
2022/01/09 11:51:09;;;;;;;13.95;1.20;;;6.50;99.90;;;;;;4985653;28;20125;-87
2022/01/09 11:53:58;;;;;;;12.30;0.90;;;6.50;99.90;;;;;;4981607;28;20494;-87
2022/01/09 11:57:18;;;;;;;12.38;1.08;;;6.60;99.90;;;;;;4969757;28;20041;-86
2022/01/09 11:59:51;;;;;;;12.18;1.25;;;6.70;99.90;;;;;;4973330;28;20038;-87
2022/01/09 12:02:16;;;;;;;14.43;1.45;;;6.60;99.90;;;;;;4977536;28;20046;-87
2022/01/09 12:04:50;;;;;;;14.57;1.25;;;6.60;99.90;;;;;;4995803;28;20034;-87
2022/01/09 12:07:32;;;;;;;11.98;1.45;;;6.60;99.90;;;;;;4991293;28;20033;-87
2022/01/09 12:09:59;;;;;;;14.07;1.90;;;6.50;99.90;;;;;;4988569;28;20023;-88
2022/01/09 12:12:31;;;;;;;18.35;1.85;;;6.40;99.90;;;;;;4981130;28;20026;-87
2022/01/09 12:15:01;;;;;;;15.82;1.88;;;6.40;99.90;;;;;;4975331;28;20201;-86
2022/01/09 12:17:42;;;;;;;15.43;0.90;;;6.30;99.90;;;;;;4989493;28;20022;-88
2022/01/09 12:20:14;;;;;;;13.80;2.05;;;6.20;99.90;;;;;;4975696;28;20077;-89
2022/01/09 12:22:49;;;;;;;14.65;1.20;;;6.30;99.90;;;;;;4971356;28;20108;-88
2022/01/09 12:25:32;;;;;;;11.63;1.40;;;6.30;99.90;;;;;;4995786;28;20115;-88
2022/01/09 12:28:11;;;;;;;10.70;1.45;;;6.30;99.90;;;;;;4989885;28;20069;-88
2022/01/09 12:30:38;;;;;;;14.60;1.20;;;6.40;99.90;;;;;;4979962;28;20031;-87
2022/01/09 12:33:27;;;;;;;10.25;1.30;;;6.40;99.90;;;;;;4980063;28;20390;-88
2022/01/09 12:35:59;;;;;;;16.25;1.90;;;6.50;99.90;;;;;;4977083;28;20053;-87
2022/01/09 12:38:27;;;;;;;9.77;0.95;;;6.50;99.90;;;;;;4989817;28;20022;-88
2022/01/09 12:40:57;;;;;;;9.68;1.00;;;6.60;99.90;;;;;;4978894;28;20387;-88
2022/01/09 12:43:24;;;;;;;7.50;1.05;;;6.50;99.90;;;;;;4976476;28;20040;-87
2022/01/09 12:45:52;;;;;;;8.13;0.98;;;6.50;99.90;;;;;;4972149;28;20053;-88
2022/01/09 12:48:28;;;;;;;11.07;1.13;;;6.30;99.90;;;;;;4975197;28;20039;-87
2022/01/09 12:51:06;;;;;;;10.77;0.80;;;6.30;99.90;;;;;;4991549;28;20113;-86
2022/01/09 12:53:38;;;;;;;8.88;0.80;;;6.20;99.90;;;;;;4972519;28;20057;-87
2022/01/09 12:56:08;;;;;;;8.40;0.68;;;6.20;99.90;;;;;;4976174;28;20030;-88
2022/01/09 12:58:44;;;;;;;11.07;0.80;;;6.30;99.90;;;;;;4987115;28;20025;-88
2022/01/09 13:01:13;;;;;;;13.32;1.98;;;6.30;99.90;;;;;;4991864;28;20076;-87